createdAt,value
2023-03-28T00:01:10.459Z,3.60
2023-03-28T00:03:41.520Z,3.80
2023-03-28T00:06:13.016Z,3.70
2023-03-28T00:08:41.447Z,3.70
2023-03-28T00:11:12.864Z,4.20
2023-03-28T00:13:40.846Z,4.10
2023-03-28T00:16:13.210Z,4.50
2023-03-28T00:18:42.734Z,4.30
2023-03-28T00:21:29.474Z,4.60
2023-03-28T00:24:02.094Z,4.40
2023-03-28T00:26:35.982Z,4.60
2023-03-28T00:31:35.139Z,4.60
2023-03-28T00:34:07.402Z,4.50
2023-03-28T00:36:35.328Z,4.20
2023-03-28T00:39:07.436Z,4.70
2023-03-28T00:41:40.223Z,4.20
2023-03-28T00:44:45.128Z,4.20
2023-03-28T00:47:28.520Z,3.90
2023-03-28T00:50:07.182Z,3.80
2023-03-28T00:52:40.761Z,3.70
2023-03-28T00:55:15.580Z,4.40
2023-03-28T00:57:46.444Z,3.70
2023-03-28T01:00:17.064Z,3.80
2023-03-28T01:02:51.362Z,4.10
2023-03-28T01:05:25.209Z,3.90
2023-03-28T01:07:58.939Z,3.80
2023-03-28T01:12:57.048Z,3.70
2023-03-28T01:15:25.089Z,4.30
2023-03-28T01:17:54.363Z,4.80
2023-03-28T01:20:29.334Z,4.30
2023-03-28T01:23:11.095Z,4.10
2023-03-28T01:25:57.617Z,4.40
2023-03-28T01:28:50.815Z,4.20
2023-03-28T01:31:46.815Z,4.60
2023-03-28T01:34:52.120Z,4.60
2023-03-28T01:37:32.734Z,5.20
2023-03-28T01:40:26.060Z,4.80
2023-03-28T01:43:15.285Z,5.20
2023-03-28T01:45:51.520Z,5.50
2023-03-28T01:48:53.950Z,5.30
2023-03-28T01:51:27.831Z,5.40
2023-03-28T01:54:13.960Z,5.10
2023-03-28T01:57:01.824Z,5.20
2023-03-28T01:59:48.163Z,5.20
2023-03-28T02:02:21.620Z,4.70
2023-03-28T02:04:51.957Z,4.60
2023-03-28T02:07:27.222Z,4.70
2023-03-28T02:09:56.779Z,5.10
2023-03-28T02:12:31.661Z,5.00
2023-03-28T02:15:05.121Z,4.90
2023-03-28T02:17:39.809Z,4.90
2023-03-28T02:20:12.595Z,4.80
2023-03-28T02:22:43.504Z,5.00
2023-03-28T02:25:11.520Z,4.60
2023-03-28T02:27:43.383Z,4.30
2023-03-28T02:30:12.552Z,5.30
2023-03-28T02:32:44.093Z,5.20
2023-03-28T02:35:12.037Z,4.90
2023-03-28T02:38:13.137Z,4.60
2023-03-28T02:41:03.428Z,5.00
2023-03-28T02:44:05.806Z,4.70
2023-03-28T02:46:52.156Z,4.80
2023-03-28T02:50:06.778Z,4.50
2023-03-28T02:52:52.112Z,4.80
2023-03-28T02:55:49.212Z,4.50
2023-03-28T02:58:23.395Z,4.40
2023-03-28T03:00:54.394Z,4.60
2023-03-28T03:03:23.717Z,4.80
2023-03-28T03:05:51.688Z,4.80
2023-03-28T03:08:19.792Z,4.60
2023-03-28T03:10:47.609Z,4.30
2023-03-28T03:13:16.720Z,6.20
2023-03-28T03:15:46.376Z,5.60
2023-03-28T03:18:14.320Z,5.70
2023-03-28T03:20:45.833Z,5.70
2023-03-28T03:23:14.045Z,6.20
2023-03-28T03:25:43.241Z,6.70
2023-03-28T03:28:12.086Z,6.10
2023-03-28T03:30:40.983Z,5.90
2023-03-28T03:33:16.843Z,7.10
2023-03-28T03:35:48.136Z,7.00
2023-03-28T03:38:16.124Z,6.20
2023-03-28T03:40:44.051Z,6.50
2023-03-28T03:43:11.865Z,7.00
2023-03-28T03:45:40.735Z,6.80
2023-03-28T03:48:08.704Z,6.70
2023-03-28T03:50:36.773Z,7.20
2023-03-28T03:53:04.817Z,7.50
2023-03-28T03:55:32.729Z,7.50
2023-03-28T03:58:01.209Z,7.90
2023-03-28T04:00:29.103Z,8.00
2023-03-28T04:02:57.122Z,7.90
2023-03-28T04:05:25.882Z,8.10
2023-03-28T04:07:53.749Z,8.40
2023-03-28T04:10:21.810Z,8.90
2023-03-28T04:12:49.765Z,7.30
2023-03-28T04:15:17.748Z,7.50
2023-03-28T04:17:46.085Z,7.60
2023-03-28T04:20:14.598Z,8.40
2023-03-28T04:22:45.416Z,7.10
2023-03-28T04:25:14.819Z,7.30
2023-03-28T04:27:47.347Z,7.60
2023-03-28T04:30:17.996Z,7.60
2023-03-28T04:32:50.561Z,7.60
2023-03-28T04:35:19.149Z,8.50
2023-03-28T04:37:49.301Z,7.50
2023-03-28T04:40:17.859Z,7.00
2023-03-28T04:42:45.971Z,7.50
2023-03-28T04:45:15.717Z,7.50
2023-03-28T04:47:46.256Z,7.60
2023-03-28T04:50:15.748Z,7.70
2023-03-28T04:52:43.619Z,7.30
2023-03-28T04:55:11.542Z,8.00
2023-03-28T04:57:39.752Z,7.30
2023-03-28T05:00:13.012Z,7.50
2023-03-28T05:02:41.224Z,7.30
2023-03-28T05:05:09.492Z,7.10
2023-03-28T05:07:37.546Z,7.90
2023-03-28T05:10:06.351Z,8.20
2023-03-28T05:12:34.316Z,7.40
2023-03-28T05:15:02.258Z,7.40
2023-03-28T05:17:30.286Z,7.70
2023-03-28T05:19:58.238Z,7.70
2023-03-28T05:22:26.317Z,7.20
2023-03-28T05:24:54.272Z,7.30
2023-03-28T05:27:22.296Z,7.20
2023-03-28T05:29:50.719Z,7.00
2023-03-28T05:32:18.593Z,6.90
2023-03-28T05:34:46.682Z,6.90
2023-03-28T05:37:14.561Z,7.40
2023-03-28T05:39:43.209Z,7.70
2023-03-28T05:42:11.236Z,7.10
2023-03-28T05:44:39.078Z,7.10
2023-03-28T05:47:07.005Z,6.80
2023-03-28T05:49:34.884Z,7.30
2023-03-28T05:52:02.949Z,7.30
2023-03-28T05:54:30.782Z,6.30
2023-03-28T05:56:58.775Z,7.00
2023-03-28T05:59:26.657Z,6.20
2023-03-28T06:01:55.575Z,6.40
2023-03-28T06:04:25.962Z,6.10
2023-03-28T06:06:54.012Z,6.00
2023-03-28T06:09:22.319Z,7.10
2023-03-28T06:11:50.815Z,6.40
2023-03-28T06:14:20.619Z,5.80
2023-03-28T06:16:49.097Z,6.10
2023-03-28T06:19:18.810Z,5.70
2023-03-28T06:21:47.246Z,6.20
2023-03-28T06:24:15.722Z,5.60
2023-03-28T06:26:43.674Z,5.40
2023-03-28T06:29:12.319Z,5.50
2023-03-28T06:31:40.746Z,5.10
2023-03-28T06:34:08.979Z,5.90
2023-03-28T06:36:37.101Z,6.00
2023-03-28T06:39:05.865Z,6.40
2023-03-28T06:41:34.164Z,6.30
2023-03-28T06:44:02.139Z,5.80
2023-03-28T06:46:30.651Z,5.60
2023-03-28T06:48:58.829Z,6.30
2023-03-28T06:51:27.313Z,4.90
2023-03-28T06:53:55.502Z,5.30
2023-03-28T06:56:23.434Z,5.20
2023-03-28T06:58:51.574Z,6.00
2023-03-28T07:01:19.527Z,5.40
2023-03-28T07:03:49.880Z,5.60
2023-03-28T07:06:19.531Z,5.80
2023-03-28T07:08:47.329Z,5.30
2023-03-28T07:11:15.427Z,5.20
2023-03-28T07:13:43.547Z,5.40
2023-03-28T07:16:14.404Z,5.00
2023-03-28T07:18:42.617Z,5.10
2023-03-28T07:21:13.388Z,5.30
2023-03-28T07:23:42.930Z,5.70
2023-03-28T07:26:12.540Z,6.10
2023-03-28T07:28:41.230Z,5.20
2023-03-28T07:31:09.441Z,5.00
2023-03-28T07:33:38.996Z,4.90
2023-03-28T07:36:16.906Z,4.90
2023-03-28T07:38:47.255Z,5.30
2023-03-28T07:41:16.882Z,5.10
2023-03-28T07:43:46.209Z,5.70
2023-03-28T07:46:16.746Z,6.50
2023-03-28T07:48:46.485Z,5.00
2023-03-28T07:51:15.188Z,4.90
2023-03-28T07:53:43.112Z,4.80
2023-03-28T07:56:12.157Z,4.70
2023-03-28T07:58:41.488Z,4.60
2023-03-28T08:01:18.847Z,4.10
2023-03-28T08:03:46.975Z,4.70
2023-03-28T08:06:30.898Z,5.10
2023-03-28T08:09:01.077Z,4.50
2023-03-28T08:11:28.935Z,4.20
2023-03-28T08:13:56.794Z,4.30
2023-03-28T08:16:24.826Z,5.60
2023-03-28T08:19:09.109Z,4.20
2023-03-28T08:21:38.634Z,4.30
2023-03-28T08:24:08.087Z,4.30
2023-03-28T08:26:37.594Z,4.20
2023-03-28T08:29:06.814Z,4.00
2023-03-28T08:31:34.816Z,4.00
2023-03-28T08:34:02.794Z,3.60
2023-03-28T08:36:31.273Z,4.10
2023-03-28T08:39:00.803Z,4.00
2023-03-28T08:41:57.112Z,3.20
2023-03-28T08:44:45.579Z,3.50
2023-03-28T08:47:25.504Z,3.90
2023-03-28T08:49:59.997Z,3.20
2023-03-28T08:52:29.176Z,3.60
2023-03-28T08:55:01.385Z,3.40
2023-03-28T08:57:32.411Z,3.00
2023-03-28T09:00:30.175Z,3.60
2023-03-28T09:02:58.803Z,3.50
2023-03-28T09:05:44.075Z,3.50
2023-03-28T09:08:35.379Z,3.10
2023-03-28T09:11:11.016Z,2.90
2023-03-28T09:14:16.365Z,2.70
2023-03-28T09:16:59.480Z,3.10
2023-03-28T09:19:52.563Z,2.80
2023-03-28T09:22:37.625Z,3.00
2023-03-28T09:25:32.183Z,3.10
2023-03-28T09:30:38.192Z,3.30
2023-03-28T09:33:14.598Z,2.90
2023-03-28T09:35:43.390Z,3.00
2023-03-28T09:38:32.932Z,3.00
2023-03-28T09:41:07.253Z,2.70
2023-03-28T09:43:41.571Z,2.80
2023-03-28T09:46:30.246Z,2.90
2023-03-28T09:48:58.956Z,2.80
2023-03-28T09:51:27.012Z,3.00
2023-03-28T09:53:54.929Z,2.80
2023-03-28T09:56:34.549Z,3.20
2023-03-28T09:59:05.106Z,2.70
2023-03-28T10:01:40.510Z,2.70
2023-03-28T10:04:18.193Z,2.50
2023-03-28T10:06:48.180Z,2.90
2023-03-28T10:09:22.464Z,2.40
2023-03-28T10:11:56.577Z,2.50
2023-03-28T10:14:32.200Z,2.50
2023-03-28T10:17:06.336Z,3.20
2023-03-28T10:19:38.047Z,2.80
2023-03-28T10:22:08.685Z,2.60
2023-03-28T10:24:37.829Z,2.50
2023-03-28T10:27:08.581Z,2.50
2023-03-28T10:29:37.212Z,2.60
2023-03-28T10:32:06.460Z,2.60
2023-03-28T10:34:35.201Z,2.50
2023-03-28T10:37:03.927Z,2.60
2023-03-28T10:39:32.532Z,2.80
2023-03-28T10:42:02.144Z,2.40
2023-03-28T10:44:33.486Z,2.80
2023-03-28T10:47:13.767Z,2.80
2023-03-28T10:49:48.229Z,2.60
2023-03-28T10:52:58.678Z,2.40
2023-03-28T10:55:38.286Z,2.40
2023-03-28T10:58:28.392Z,3.50
2023-03-28T11:00:56.317Z,2.50
2023-03-28T11:03:44.663Z,2.60
2023-03-28T11:06:46.076Z,2.70
2023-03-28T11:09:35.620Z,2.20
2023-03-28T11:12:28.626Z,2.60
2023-03-28T11:15:20.109Z,2.20
2023-03-28T11:18:08.205Z,3.00
2023-03-28T11:20:45.908Z,2.40
2023-03-28T11:23:22.937Z,2.30
2023-03-28T11:26:01.268Z,2.30
2023-03-28T11:28:39.150Z,2.50
2023-03-28T11:31:14.911Z,3.20
2023-03-28T11:34:05.358Z,3.10
2023-03-28T11:36:38.975Z,2.50
2023-03-28T11:39:32.114Z,2.60
2023-03-28T11:42:06.214Z,2.50
2023-03-28T11:44:41.575Z,2.40
2023-03-28T11:47:17.643Z,2.20
2023-03-28T11:49:56.838Z,3.10
2023-03-28T11:53:20.296Z,4.70
2023-03-28T11:55:58.227Z,2.70
2023-03-28T11:58:29.397Z,2.40
2023-03-28T12:01:02.630Z,2.50
2023-03-28T12:03:49.429Z,2.60
2023-03-28T12:06:30.805Z,2.70
2023-03-28T12:09:14.392Z,2.80
2023-03-28T12:11:57.646Z,2.60
2023-03-28T12:14:57.567Z,3.10
2023-03-28T12:17:32.628Z,3.00
2023-03-28T12:20:00.659Z,2.40
2023-03-28T12:22:40.874Z,2.70
2023-03-28T12:25:31.200Z,2.70
2023-03-28T12:28:11.137Z,3.10
2023-03-28T12:30:57.003Z,2.90
2023-03-28T12:33:43.622Z,2.70
2023-03-28T12:36:14.634Z,2.80
2023-03-28T12:38:58.641Z,3.20
2023-03-28T12:41:40.311Z,3.10
2023-03-28T12:44:16.139Z,3.10
2023-03-28T12:46:59.725Z,3.20
2023-03-28T12:49:32.861Z,2.60
2023-03-28T12:52:03.629Z,3.20
2023-03-28T12:54:52.820Z,3.20
2023-03-28T12:57:51.040Z,3.00
2023-03-28T13:00:21.809Z,2.80
2023-03-28T13:03:07.436Z,3.10
2023-03-28T13:05:46.441Z,2.50
2023-03-28T13:08:24.389Z,3.10
2023-03-28T13:11:28.562Z,2.50
2023-03-28T13:14:17.714Z,2.60
2023-03-28T13:16:55.937Z,2.40
2023-03-28T13:19:55.498Z,3.20
2023-03-28T13:22:32.294Z,2.50
2023-03-28T13:25:22.081Z,2.70
2023-03-28T13:28:09.837Z,3.20
2023-03-28T13:30:42.047Z,3.10
2023-03-28T13:33:25.301Z,3.00
2023-03-28T13:35:59.079Z,3.10
2023-03-28T13:40:59.659Z,3.30
2023-03-28T13:43:33.744Z,2.70
2023-03-28T13:46:08.947Z,2.90
2023-03-28T13:48:51.080Z,3.00
2023-03-28T13:51:24.341Z,3.40
2023-03-28T13:53:53.215Z,3.00
2023-03-28T13:56:34.103Z,2.80
2023-03-28T13:59:08.159Z,2.90
2023-03-28T14:01:46.627Z,3.30
2023-03-28T14:04:19.473Z,3.10
2023-03-28T14:06:48.791Z,3.10
2023-03-28T14:09:28.858Z,3.20
2023-03-28T14:12:01.894Z,3.30
2023-03-28T14:14:36.097Z,3.40
2023-03-28T14:17:07.907Z,3.00
2023-03-28T14:19:41.347Z,2.60
2023-03-28T14:22:18.979Z,3.00
2023-03-28T14:24:51.296Z,3.20
2023-03-28T14:27:38.100Z,2.70
2023-03-28T14:30:18.320Z,3.00
2023-03-28T14:32:59.562Z,2.70
2023-03-28T14:35:35.458Z,2.90
2023-03-28T14:38:13.967Z,3.20
2023-03-28T14:40:44.328Z,3.10
2023-03-28T14:43:13.164Z,2.90
2023-03-28T14:45:44.761Z,3.40
2023-03-28T14:48:17.182Z,3.30
2023-03-28T14:50:47.721Z,3.30
2023-03-28T14:53:22.558Z,3.20
2023-03-28T14:55:52.069Z,3.30
2023-03-28T14:58:24.851Z,3.40
2023-03-28T15:00:55.928Z,3.20
2023-03-28T15:03:49.656Z,3.90
2023-03-28T15:06:20.287Z,4.30
2023-03-28T15:08:49.417Z,3.90
2023-03-28T15:11:23.446Z,3.90
2023-03-28T15:14:01.824Z,3.90
2023-03-28T15:16:31.425Z,3.90
2023-03-28T15:19:22.292Z,4.20
2023-03-28T15:22:00.436Z,4.10
2023-03-28T15:24:29.090Z,3.60
2023-03-28T15:27:01.608Z,4.00
2023-03-28T15:29:36.262Z,3.60
2023-03-28T15:32:12.600Z,3.10
2023-03-28T15:35:04.643Z,3.20
2023-03-28T15:37:44.595Z,3.50
2023-03-28T15:40:18.394Z,3.90
2023-03-28T15:42:49.859Z,3.90
2023-03-28T15:45:28.554Z,3.00
2023-03-28T15:47:57.212Z,3.30
2023-03-28T15:50:31.078Z,4.20
2023-03-28T15:55:42.855Z,3.90
2023-03-28T15:58:16.736Z,4.10
2023-03-28T16:00:53.691Z,3.90
2023-03-28T16:03:21.760Z,4.20
2023-03-28T16:06:04.604Z,4.40
2023-03-28T16:08:41.987Z,4.60
2023-03-28T16:11:23.229Z,4.50
2023-03-28T16:13:51.201Z,4.60
2023-03-28T16:16:29.402Z,8.50
2023-03-28T16:18:57.472Z,6.90
2023-03-28T16:21:25.720Z,7.30
2023-03-28T16:23:53.673Z,7.00
2023-03-28T16:26:21.616Z,10.20
2023-03-28T16:28:49.564Z,8.90
2023-03-28T16:31:17.556Z,8.20
2023-03-28T16:33:47.124Z,8.90
2023-03-28T16:36:15.122Z,7.40
2023-03-28T16:38:43.384Z,5.80
2023-03-28T16:41:11.733Z,6.00
2023-03-28T16:43:43.234Z,5.50
2023-03-28T16:46:12.501Z,4.50
2023-03-28T16:48:41.503Z,5.00
2023-03-28T16:51:09.466Z,3.80
2023-03-28T16:53:39.228Z,3.90
2023-03-28T16:56:09.180Z,4.10
2023-03-28T16:58:37.193Z,3.40
2023-03-28T17:01:11.028Z,3.20
2023-03-28T17:06:09.137Z,2.70
2023-03-28T17:08:40.962Z,2.90
2023-03-28T17:11:13.428Z,3.20
2023-03-28T17:13:43.017Z,3.30
2023-03-28T17:16:11.340Z,3.80
2023-03-28T17:18:39.523Z,3.40
2023-03-28T17:21:11.227Z,2.90
2023-03-28T17:23:40.706Z,2.80
2023-03-28T17:26:10.160Z,3.30
2023-03-28T17:28:39.902Z,5.20
2023-03-28T17:31:14.578Z,3.40
2023-03-28T17:33:43.379Z,4.10
2023-03-28T17:36:24.868Z,3.90
2023-03-28T17:38:56.969Z,4.20
2023-03-28T17:41:27.855Z,3.90
2023-03-28T17:43:57.242Z,3.60
2023-03-28T17:46:26.388Z,3.90
2023-03-28T17:48:54.542Z,4.20
2023-03-28T17:51:23.206Z,4.10
2023-03-28T17:53:51.323Z,4.50
2023-03-28T17:56:19.744Z,4.90
2023-03-28T17:58:47.930Z,4.90
2023-03-28T18:01:18.915Z,5.00
2023-03-28T18:03:47.495Z,5.00
2023-03-28T18:06:15.782Z,5.10
2023-03-28T18:08:45.770Z,4.40
2023-03-28T18:11:17.844Z,4.10
2023-03-28T18:13:49.284Z,4.00
2023-03-28T18:16:18.539Z,4.70
2023-03-28T18:18:47.785Z,4.10
2023-03-28T18:21:18.686Z,3.80
2023-03-28T18:23:49.511Z,4.50
2023-03-28T18:26:20.519Z,4.00
2023-03-28T18:28:48.832Z,4.10
2023-03-28T18:31:28.233Z,4.30
2023-03-28T18:33:57.958Z,4.10
2023-03-28T18:36:26.853Z,4.00
2023-03-28T18:38:56.348Z,4.30
2023-03-28T18:41:29.746Z,4.30
2023-03-28T18:44:00.164Z,4.20
2023-03-28T18:46:30.005Z,4.10
2023-03-28T18:49:01.968Z,4.50
2023-03-28T18:51:30.058Z,4.50
2023-03-28T18:54:03.526Z,4.60
2023-03-28T18:56:32.972Z,4.90
2023-03-28T18:59:02.714Z,4.40
2023-03-28T19:01:34.422Z,4.60
2023-03-28T19:04:05.877Z,4.50
2023-03-28T19:06:36.730Z,4.10
2023-03-28T19:09:05.375Z,5.00
2023-03-28T19:11:33.603Z,5.20
2023-03-28T19:14:01.920Z,5.10
2023-03-28T19:16:29.835Z,4.80
2023-03-28T19:18:58.342Z,5.00
2023-03-28T19:21:26.608Z,4.80
2023-03-28T19:23:54.822Z,4.70
2023-03-28T19:26:23.252Z,4.80
2023-03-28T19:28:51.762Z,5.00
2023-03-28T19:31:22.038Z,4.90
2023-03-28T19:33:49.947Z,5.20
2023-03-28T19:36:18.070Z,5.00
2023-03-28T19:38:46.264Z,5.00
2023-03-28T19:41:23.891Z,4.80
2023-03-28T19:43:51.772Z,4.50
2023-03-28T19:46:33.102Z,4.80
2023-03-28T19:49:06.474Z,5.10
2023-03-28T19:51:35.026Z,5.30
2023-03-28T19:54:03.129Z,5.10
2023-03-28T19:56:31.680Z,5.00
2023-03-28T19:58:59.820Z,5.10
2023-03-28T20:01:27.725Z,5.20
2023-03-28T20:03:56.281Z,5.40
2023-03-28T20:06:24.319Z,5.10
2023-03-28T20:08:52.313Z,6.00
2023-03-28T20:11:22.083Z,5.30
2023-03-28T20:13:50.315Z,5.30
2023-03-28T20:16:18.570Z,5.10
2023-03-28T20:18:46.574Z,4.80
2023-03-28T20:21:15.438Z,6.10
2023-03-28T20:23:43.473Z,5.40
2023-03-28T20:26:20.466Z,4.60
2023-03-28T20:28:51.522Z,5.70
2023-03-28T20:31:19.591Z,5.90
2023-03-28T20:33:47.566Z,5.40
2023-03-28T20:36:15.460Z,4.40
2023-03-28T20:38:43.365Z,4.50
2023-03-28T20:41:16.823Z,5.00
2023-03-28T20:43:50.374Z,6.00
2023-03-28T20:46:19.626Z,5.60
2023-03-28T20:48:56.861Z,6.00
2023-03-28T20:51:26.194Z,5.70
2023-03-28T20:53:57.118Z,5.40
2023-03-28T20:56:27.570Z,5.60
2023-03-28T20:58:58.228Z,5.40
2023-03-28T21:01:30.113Z,6.00
2023-03-28T21:04:00.324Z,6.00
2023-03-28T21:06:36.006Z,5.50
2023-03-28T21:09:10.136Z,6.00
2023-03-28T21:11:39.474Z,5.50
2023-03-28T21:14:12.582Z,5.90
2023-03-28T21:16:41.531Z,5.40
2023-03-28T21:19:10.012Z,5.90
2023-03-28T21:21:38.207Z,5.70
2023-03-28T21:24:07.369Z,5.50
2023-03-28T21:26:35.908Z,5.20
2023-03-28T21:29:04.802Z,5.30
2023-03-28T21:31:33.283Z,5.20
2023-03-28T21:34:01.555Z,5.10
2023-03-28T21:36:29.498Z,4.80
2023-03-28T21:38:57.521Z,5.20
2023-03-28T21:41:27.372Z,5.20
2023-03-28T21:43:56.235Z,4.90
2023-03-28T21:46:24.510Z,5.70
2023-03-28T21:48:52.545Z,4.10
2023-03-28T21:51:20.430Z,5.40
2023-03-28T21:53:48.374Z,5.60
2023-03-28T21:56:16.798Z,5.80
2023-03-28T21:58:44.885Z,5.10
2023-03-28T22:01:15.133Z,5.20
2023-03-28T22:03:44.495Z,5.80
2023-03-28T22:06:14.377Z,4.90
2023-03-28T22:08:46.507Z,5.10
2023-03-28T22:11:19.816Z,4.90
2023-03-28T22:13:47.700Z,5.30
2023-03-28T22:16:15.801Z,6.00
2023-03-28T22:18:50.097Z,5.60
2023-03-28T22:21:18.429Z,6.00
2023-03-28T22:23:47.873Z,5.70
2023-03-28T22:26:16.454Z,5.40
2023-03-28T22:28:44.603Z,5.40
2023-03-28T22:31:13.155Z,5.20
2023-03-28T22:33:41.090Z,6.00
2023-03-28T22:36:09.853Z,6.10
2023-03-28T22:38:38.148Z,5.20
2023-03-28T22:41:06.784Z,5.90
2023-03-28T22:43:35.168Z,5.70
2023-03-28T22:46:03.498Z,5.90
2023-03-28T22:48:32.508Z,5.60
2023-03-28T22:51:01.621Z,5.50
2023-03-28T22:53:30.435Z,5.80
2023-03-28T22:55:58.966Z,6.20
2023-03-28T22:58:27.303Z,6.30
2023-03-28T23:00:55.310Z,6.40
2023-03-28T23:03:23.245Z,6.10
2023-03-28T23:05:51.786Z,6.00
2023-03-28T23:08:20.403Z,6.40
2023-03-28T23:10:48.597Z,6.00
2023-03-28T23:13:16.625Z,5.80
2023-03-28T23:15:44.832Z,6.10
2023-03-28T23:18:14.679Z,5.90
2023-03-28T23:20:42.980Z,5.80
2023-03-28T23:23:12.774Z,5.40
2023-03-28T23:25:40.685Z,5.20
2023-03-28T23:28:08.784Z,5.50
2023-03-28T23:30:39.122Z,5.40
2023-03-28T23:33:07.352Z,5.10
2023-03-28T23:35:35.871Z,4.90
2023-03-28T23:38:03.845Z,5.10
2023-03-28T23:40:31.736Z,5.10
2023-03-28T23:42:59.738Z,4.80
2023-03-28T23:45:27.604Z,5.10
2023-03-28T23:47:55.634Z,5.10
2023-03-28T23:50:23.602Z,5.00
2023-03-28T23:52:51.811Z,5.60
2023-03-28T23:55:20.210Z,5.10
2023-03-28T23:57:48.076Z,4.80
